This is the latest recevied weather packets stored in our database for station/object PY5KT-13. If no packets are shown the sender has not sent any weather packets the latest 10 day(s).
| Time | Temp. | Humidity | Pressure | Rain* | Wind** | Luminosity | Snow |
|---|---|---|---|---|---|---|---|
| 1778090380 | 26.67° C | 53% | 1021.3 hPa | 0 mm | - | 115 W/m² | - |
| 1778090079 | 26.67° C | 55% | 1021.3 hPa | 0 mm | - | 106 W/m² | - |
| 1778089777 | 26.67° C | 55% | 1021.3 hPa | 0 mm | - | 99 W/m² | - |
| 1778089475 | 26.67° C | 53% | 1021.3 hPa | 0 mm | - | 102 W/m² | - |
| 1778089174 | 27.22° C | 51% | 1021.4 hPa | 0 mm | - | 114 W/m² | - |
| 1778088872 | 27.78° C | 48% | 1021.5 hPa | 0 mm | - | 122 W/m² | - |
| 1778088570 | 28.33° C | 48% | 1021.5 hPa | 0 mm | - | 423 W/m² | - |
| 1778088268 | 28.33° C | 49% | 1021.5 hPa | 0 mm | - | 136 W/m² | - |
| 1778087966 | 29.44° C | 45% | 1021.5 hPa | 0 mm | - | 131 W/m² | - |
| 1778087664 | 31.11° C | 41% | 1021.5 hPa | 0 mm | - | 581 W/m² | - |
| 1778087362 | 30° C | 46% | 1021.6 hPa | 0 mm | - | 597 W/m² | - |
| 1778087060 | 27.78° C | 50% | 1021.7 hPa | 0 mm | - | 280 W/m² | - |
| 1778086758 | 28.89° C | 48% | 1021.8 hPa | 0 mm | - | 157 W/m² | - |
| 1778086457 | 29.44° C | 46% | 1021.9 hPa | 0 mm | - | 144 W/m² | - |
| 1778086155 | 31.11° C | 43% | 1021.9 hPa | 0 mm | - | 374 W/m² | - |
| 1778085853 | 30° C | 45% | 1022 hPa | 0 mm | - | 630 W/m² | - |
| 1778085551 | 30° C | 46% | 1022.1 hPa | 0 mm | - | 558 W/m² | - |
| 1778085250 | 29.44° C | 47% | 1022.2 hPa | 0 mm | - | 445 W/m² | - |
| 1778084948 | 28.89° C | 47% | 1022.2 hPa | 0 mm | - | 167 W/m² | - |
| 1778084647 | 30.56° C | 43% | 1022.2 hPa | 0 mm | - | 163 W/m² | - |
| 1778084344 | 30° C | 45% | 1022.3 hPa | 0 mm | - | 631 W/m² | - |
| 1778084043 | 30° C | 43% | 1022.3 hPa | 0 mm | - | 597 W/m² | - |
| 1778083741 | 30° C | 43% | 1022.4 hPa | 0 mm | - | 604 W/m² | - |
| 1778083439 | 30° C | 44% | 1022.5 hPa | 0 mm | - | 624 W/m² | - |
| 1778083137 | 30° C | 44% | 1022.6 hPa | 0 mm | - | 633 W/m² | - |
* Rain latest hour (hover to see other rain measurements)
** Current wind speed in m/s (hover to see current wind gust speed)